Flight Track Log - Related Links

Times and Time Zones

All times are in EDT time to prevent confusion due to time zone crossing. See the N27XP flight status page for this flight to view local times or setup timezone preferences in your user account.

Time Position Orientation Groundspeed Altitude Reporting Facility
EDT Latitude Longitude Course Direction KTS MPH feet Rate Location/Type
Fri 09:59:06 AM 35.2122 -79.7731 270° West 270 311 6,000  Level Atlanta Center
Fri 09:59:37 AM 35.2117 -79.8164 269° West 268 308 6,000  Level Atlanta Center
Fri 10:00:00 AM 35.2000 -79.7097 270° West  Level FlightAware Approximate
Fri 10:00:38 AM 35.2108 -79.9131 269° West 268 308 6,000  Level Atlanta Center
Fri 10:01:00 AM 35.2000 -79.7761 270° West  Level FlightAware Approximate
Fri 10:01:45 AM 35.2097 -80.0097 269° West 269 310 6,000  Level Atlanta Center
Fri 10:02:00 AM 35.2000 -79.8424 270° West  Level FlightAware Approximate
Fri 10:02:46 AM 35.2044 -80.1014 266° West 267 307 6,000  Level Atlanta Center
Fri 10:03:00 AM 35.2000 -79.9088 270° West  Level FlightAware Approximate
Fri 10:03:48 AM 35.1678 -80.1922 244° Southwest 269 310 6,000  Level Atlanta Center
Fri 10:04:00 AM 35.2000 -79.9751 270° West  Level FlightAware Approximate
Fri 10:04:49 AM 35.1306 -80.2700 240° Southwest 268 308 5,100  Level Atlanta Center
Fri 10:05:50 AM 35.0992 -80.3425 242° Southwest 241 277 5,000 -49 Descending Atlanta Center
Fri 10:06:51 AM 35.0700 -80.4072 241° Southwest 215 247 5,000 -492 Level Atlanta Center
Fri 10:07:52 AM 35.0808 -80.4931 279° West 228 262 4,000 -492 Descending Atlanta Center
Fri 10:08:53 AM 35.0933 -80.5661 282° West 222 255 4,000  Level Atlanta Center
Fri 10:09:54 AM 35.1100 -80.6367 286° West 225 259 4,000  Level Atlanta Center
Fri 10:11:01 AM 35.1597 -80.7006 314° West 222 255 4,000  Level Atlanta Center
Fri 10:11:56 AM 35.2025 -80.7419 322° Northwest 226 260 4,000  Level Atlanta Center
Fri 10:12:58 AM 35.2517 -80.7122 26° Northeast 235 270 4,000  Level Atlanta Center
Fri 10:13:58 AM 35.2939 -80.6544 48° Northeast 230 265 4,000  Level Atlanta Center
Fri 10:15:05 AM 35.3511 -80.6853 336° Northwest 201 231 4,000  Level Atlanta Center
Fri 10:16:00 AM 35.3650 -80.7331 290° West 165 190 4,000 -52 Level Atlanta Center
Fri 10:17:01 AM 35.3369 -80.7750 231° Southwest 161 185 3,900 -443 Descending Atlanta Center
Fri 10:18:02 AM 35.3047 -80.8194 228° Southwest 163 188 3,100 -295 Descending Atlanta Center
Fri 10:19:03 AM 35.2714 -80.8283 192° South 161 185 3,300 443 Climbing Atlanta Center
Fri 10:20:04 AM 35.2575 -80.7756 108° East 184 212 4,000 341 Climbing Atlanta Center
Fri 10:21:06 AM 35.2750 -80.7239 67° East 177 204 4,000  Level Atlanta Center
Fri 10:22:13 AM 35.3092 -80.6767 48° Northeast 171 197 4,000  Level Atlanta Center
Fri 10:23:13 AM 35.3414 -80.6322 48° Northeast 174 200 4,000  Level Atlanta Center
Fri 10:24:08 AM 35.3769 -80.6333 359° North 170 196 4,000  Level Atlanta Center
Fri 10:25:09 AM 35.3494 -80.6242 165° South 167 192 4,000  Level Atlanta Center
Fri 10:26:04 AM 35.3611 -80.6669 289° West 161 185 4,000  Level Atlanta Center
Fri 10:27:11 AM 35.3461 -80.7286 253° West 165 190 4,000 -179 Level Atlanta Center
Fri 10:28:18 AM 35.3208 -80.7958 245° Southwest 193 222 3,600 -656 Descending Atlanta Center
Fri 10:29:19 AM 35.2867 -80.8456 230° Southwest 196 226 2,600 -787 Descending Atlanta Center
Fri 10:30:20 AM 35.2542 -80.8875 227° Southwest 180 207 2,000 -787 Descending Atlanta Center
Fri 10:31:21 AM 35.2303 -80.9242 231° Southwest 130 150 1,000 -984 Descending Atlanta Center

Login

Don't have an account? Register now (free) for customized features, flight alerts, and more!